sensor_id;sensor_type;location;lat;lon;timestamp;temperature;humidity
1830;DHT22;914;48.118;11.600;2023-02-26T00:01:23;1.70;99.90
1830;DHT22;914;48.118;11.600;2023-02-26T00:03:54;2.00;99.90
1830;DHT22;914;48.118;11.600;2023-02-26T00:06:21;1.90;99.90
1830;DHT22;914;48.118;11.600;2023-02-26T00:08:47;2.10;99.90
1830;DHT22;914;48.118;11.600;2023-02-26T00:11:14;1.80;99.90
1830;DHT22;914;48.118;11.600;2023-02-26T00:13:43;1.60;99.90
1830;DHT22;914;48.118;11.600;2023-02-26T00:16:25;1.60;99.90
1830;DHT22;914;48.118;11.600;2023-02-26T00:18:52;1.50;99.90
1830;DHT22;914;48.118;11.600;2023-02-26T00:21:20;1.60;99.90
1830;DHT22;914;48.118;11.600;2023-02-26T00:23:46;2.00;99.90
1830;DHT22;914;48.118;11.600;2023-02-26T00:26:12;2.10;99.90
1830;DHT22;914;48.118;11.600;2023-02-26T00:28:38;2.10;99.90
1830;DHT22;914;48.118;11.600;2023-02-26T00:31:04;2.00;99.90
1830;DHT22;914;48.118;11.600;2023-02-26T00:33:30;2.00;99.90
1830;DHT22;914;48.118;11.600;2023-02-26T00:38:40;1.80;99.90
1830;DHT22;914;48.118;11.600;2023-02-26T00:41:07;1.80;99.90
1830;DHT22;914;48.118;11.600;2023-02-26T00:43:33;1.50;99.90
1830;DHT22;914;48.118;11.600;2023-02-26T00:46:15;1.60;99.90
1830;DHT22;914;48.118;11.600;2023-02-26T00:53:48;1.70;99.90
1830;DHT22;914;48.118;11.600;2023-02-26T00:56:16;1.90;99.90
1830;DHT22;914;48.118;11.600;2023-02-26T00:58:43;1.30;99.90
1830;DHT22;914;48.118;11.600;2023-02-26T01:01:09;1.20;99.90
1830;DHT22;914;48.118;11.600;2023-02-26T01:03:35;1.40;99.90
1830;DHT22;914;48.118;11.600;2023-02-26T01:06:01;1.50;99.90
1830;DHT22;914;48.118;11.600;2023-02-26T01:08:30;2.00;99.90
1830;DHT22;914;48.118;11.600;2023-02-26T01:10:58;1.90;99.90
1830;DHT22;914;48.118;11.600;2023-02-26T01:13:24;2.00;99.90
1830;DHT22;914;48.118;11.600;2023-02-26T01:15:56;1.80;99.90
1830;DHT22;914;48.118;11.600;2023-02-26T01:18:45;1.50;99.90
1830;DHT22;914;48.118;11.600;2023-02-26T01:21:20;1.40;99.90
1830;DHT22;914;48.118;11.600;2023-02-26T01:23:50;1.50;99.90
1830;DHT22;914;48.118;11.600;2023-02-26T01:26:22;1.60;99.90
1830;DHT22;914;48.118;11.600;2023-02-26T01:28:48;1.60;99.90
1830;DHT22;914;48.118;11.600;2023-02-26T01:31:31;1.70;99.90
1830;DHT22;914;48.118;11.600;2023-02-26T01:40:02;1.50;99.90
1830;DHT22;914;48.118;11.600;2023-02-26T01:42:32;1.50;99.90
1830;DHT22;914;48.118;11.600;2023-02-26T01:45:03;1.20;99.90
1830;DHT22;914;48.118;11.600;2023-02-26T01:47:47;1.10;99.90
1830;DHT22;914;48.118;11.600;2023-02-26T01:50:17;0.90;99.90
1830;DHT22;914;48.118;11.600;2023-02-26T01:55:13;1.10;99.90
1830;DHT22;914;48.118;11.600;2023-02-26T01:57:40;1.20;99.90
1830;DHT22;914;48.118;11.600;2023-02-26T02:00:06;1.30;99.90
1830;DHT22;914;48.118;11.600;2023-02-26T02:02:32;1.30;99.90
1830;DHT22;914;48.118;11.600;2023-02-26T02:05:04;1.50;99.90
1830;DHT22;914;48.118;11.600;2023-02-26T02:07:32;1.60;99.90
1830;DHT22;914;48.118;11.600;2023-02-26T02:09:57;1.60;99.80
1830;DHT22;914;48.118;11.600;2023-02-26T02:12:37;1.50;99.40
1830;DHT22;914;48.118;11.600;2023-02-26T02:18:21;1.40;99.60
1830;DHT22;914;48.118;11.600;2023-02-26T02:21:08;1.20;99.90
1830;DHT22;914;48.118;11.600;2023-02-26T02:24:33;1.30;99.90
1830;DHT22;914;48.118;11.600;2023-02-26T02:32:04;1.40;99.90
1830;DHT22;914;48.118;11.600;2023-02-26T02:34:54;1.20;99.80
1830;DHT22;914;48.118;11.600;2023-02-26T02:37:36;0.90;99.10
1830;DHT22;914;48.118;11.600;2023-02-26T02:40:27;1.20;99.90
1830;DHT22;914;48.118;11.600;2023-02-26T02:43:07;1.10;98.20
1830;DHT22;914;48.118;11.600;2023-02-26T02:45:50;1.10;98.80
1830;DHT22;914;48.118;11.600;2023-02-26T02:48:31;1.10;98.60
1830;DHT22;914;48.118;11.600;2023-02-26T02:51:11;1.70;98.30
1830;DHT22;914;48.118;11.600;2023-02-26T02:53:58;1.20;97.10
1830;DHT22;914;48.118;11.600;2023-02-26T02:57:21;1.20;97.10
1830;DHT22;914;48.118;11.600;2023-02-26T02:59:44;1.30;97.20
1830;DHT22;914;48.118;11.600;2023-02-26T03:02:19;1.20;97.50
1830;DHT22;914;48.118;11.600;2023-02-26T03:04:46;1.20;97.70
1830;DHT22;914;48.118;11.600;2023-02-26T03:07:13;1.30;97.80
1830;DHT22;914;48.118;11.600;2023-02-26T03:09:39;1.30;98.00
1830;DHT22;914;48.118;11.600;2023-02-26T03:12:05;1.10;97.90
1830;DHT22;914;48.118;11.600;2023-02-26T03:14:31;1.00;98.40
1830;DHT22;914;48.118;11.600;2023-02-26T03:23:04;1.00;97.60
1830;DHT22;914;48.118;11.600;2023-02-26T03:28:08;0.30;99.30
1830;DHT22;914;48.118;11.600;2023-02-26T03:36:35;0.90;97.30
1830;DHT22;914;48.118;11.600;2023-02-26T03:42:17;1.00;98.90
1830;DHT22;914;48.118;11.600;2023-02-26T03:44:54;1.00;98.90
1830;DHT22;914;48.118;11.600;2023-02-26T03:47:22;1.10;98.30
1830;DHT22;914;48.118;11.600;2023-02-26T03:50:04;0.50;97.80
1830;DHT22;914;48.118;11.600;2023-02-26T03:52:34;0.40;98.20
1830;DHT22;914;48.118;11.600;2023-02-26T03:55:10;0.40;97.30
1830;DHT22;914;48.118;11.600;2023-02-26T03:57:37;0.30;98.30
1830;DHT22;914;48.118;11.600;2023-02-26T04:00:04;0.70;98.70
1830;DHT22;914;48.118;11.600;2023-02-26T04:02:36;0.50;97.30
1830;DHT22;914;48.118;11.600;2023-02-26T04:05:25;0.60;98.10
1830;DHT22;914;48.118;11.600;2023-02-26T04:07:52;0.50;98.10
1830;DHT22;914;48.118;11.600;2023-02-26T04:10:20;0.60;98.00
1830;DHT22;914;48.118;11.600;2023-02-26T04:13:00;0.70;97.70
1830;DHT22;914;48.118;11.600;2023-02-26T04:15:27;0.90;97.30
1830;DHT22;914;48.118;11.600;2023-02-26T04:17:52;0.40;96.90
1830;DHT22;914;48.118;11.600;2023-02-26T04:20:18;0.50;97.50
1830;DHT22;914;48.118;11.600;2023-02-26T04:22:44;0.60;97.30
1830;DHT22;914;48.118;11.600;2023-02-26T04:25:10;0.20;96.60
1830;DHT22;914;48.118;11.600;2023-02-26T04:27:35;0.10;97.40
1830;DHT22;914;48.118;11.600;2023-02-26T04:30:01;0.40;97.40
1830;DHT22;914;48.118;11.600;2023-02-26T04:32:27;0.30;97.10
1830;DHT22;914;48.118;11.600;2023-02-26T04:34:53;0.40;97.60
1830;DHT22;914;48.118;11.600;2023-02-26T04:37:19;0.30;97.40
1830;DHT22;914;48.118;11.600;2023-02-26T04:39:44;0.50;97.70
1830;DHT22;914;48.118;11.600;2023-02-26T04:42:10;0.20;97.40
1830;DHT22;914;48.118;11.600;2023-02-26T04:44:35;-0.10;97.30
1830;DHT22;914;48.118;11.600;2023-02-26T04:47:01;0.40;98.00
1830;DHT22;914;48.118;11.600;2023-02-26T04:49:27;-0.10;96.90
1830;DHT22;914;48.118;11.600;2023-02-26T04:51:53;0.00;97.40
1830;DHT22;914;48.118;11.600;2023-02-26T04:54:19;0.10;97.10
1830;DHT22;914;48.118;11.600;2023-02-26T04:56:44;0.10;97.30
1830;DHT22;914;48.118;11.600;2023-02-26T04:59:11;0.10;97.00
1830;DHT22;914;48.118;11.600;2023-02-26T05:01:37;0.00;97.10
1830;DHT22;914;48.118;11.600;2023-02-26T05:04:02;0.00;96.90
1830;DHT22;914;48.118;11.600;2023-02-26T05:06:31;-0.20;97.10
1830;DHT22;914;48.118;11.600;2023-02-26T05:08:57;0.00;97.00
1830;DHT22;914;48.118;11.600;2023-02-26T05:11:23;-0.10;96.90
1830;DHT22;914;48.118;11.600;2023-02-26T05:13:48;-0.50;96.70
1830;DHT22;914;48.118;11.600;2023-02-26T05:16:14;-0.60;97.80
1830;DHT22;914;48.118;11.600;2023-02-26T05:18:40;-0.50;97.60
1830;DHT22;914;48.118;11.600;2023-02-26T05:21:06;-0.50;97.60
1830;DHT22;914;48.118;11.600;2023-02-26T05:23:32;-0.40;97.20
1830;DHT22;914;48.118;11.600;2023-02-26T05:25:57;-0.50;96.90
1830;DHT22;914;48.118;11.600;2023-02-26T05:28:27;-0.30;97.10
1830;DHT22;914;48.118;11.600;2023-02-26T05:30:52;-0.10;96.50
1830;DHT22;914;48.118;11.600;2023-02-26T05:33:18;-0.30;95.90
1830;DHT22;914;48.118;11.600;2023-02-26T05:35:45;-0.40;96.20
1830;DHT22;914;48.118;11.600;2023-02-26T05:38:11;-0.50;96.40
1830;DHT22;914;48.118;11.600;2023-02-26T05:40:37;-0.40;96.90
1830;DHT22;914;48.118;11.600;2023-02-26T05:43:03;-0.40;96.40
1830;DHT22;914;48.118;11.600;2023-02-26T05:45:28;-0.20;95.40
1830;DHT22;914;48.118;11.600;2023-02-26T05:47:54;-0.50;95.30
1830;DHT22;914;48.118;11.600;2023-02-26T05:50:20;-0.40;96.20
1830;DHT22;914;48.118;11.600;2023-02-26T05:52:45;-0.60;95.80
1830;DHT22;914;48.118;11.600;2023-02-26T05:55:11;-0.80;96.60
1830;DHT22;914;48.118;11.600;2023-02-26T05:57:37;-0.60;96.60
1830;DHT22;914;48.118;11.600;2023-02-26T06:00:05;-0.60;96.00
1830;DHT22;914;48.118;11.600;2023-02-26T06:02:31;-0.70;96.30
1830;DHT22;914;48.118;11.600;2023-02-26T06:04:56;-0.70;96.70
1830;DHT22;914;48.118;11.600;2023-02-26T06:07:22;-0.70;97.00
1830;DHT22;914;48.118;11.600;2023-02-26T06:09:49;-0.60;96.60
1830;DHT22;914;48.118;11.600;2023-02-26T06:12:14;-0.70;96.50
1830;DHT22;914;48.118;11.600;2023-02-26T06:14:40;-0.40;97.00
1830;DHT22;914;48.118;11.600;2023-02-26T06:17:06;-0.60;96.20
1830;DHT22;914;48.118;11.600;2023-02-26T06:19:32;-0.60;96.30
1830;DHT22;914;48.118;11.600;2023-02-26T06:21:58;-0.40;96.40
1830;DHT22;914;48.118;11.600;2023-02-26T06:24:23;-0.30;96.00
1830;DHT22;914;48.118;11.600;2023-02-26T06:26:49;-0.50;95.90
1830;DHT22;914;48.118;11.600;2023-02-26T06:29:15;-0.40;96.00
1830;DHT22;914;48.118;11.600;2023-02-26T06:31:43;-1.00;95.40
1830;DHT22;914;48.118;11.600;2023-02-26T06:34:09;-1.10;97.10
1830;DHT22;914;48.118;11.600;2023-02-26T06:36:34;-0.70;97.40
1830;DHT22;914;48.118;11.600;2023-02-26T06:39:01;-0.70;96.60
1830;DHT22;914;48.118;11.600;2023-02-26T06:41:27;-0.60;96.80
1830;DHT22;914;48.118;11.600;2023-02-26T06:43:52;-0.70;95.70
1830;DHT22;914;48.118;11.600;2023-02-26T06:46:18;-1.00;95.90
1830;DHT22;914;48.118;11.600;2023-02-26T06:48:43;-0.80;96.70
1830;DHT22;914;48.118;11.600;2023-02-26T06:51:09;-0.30;96.20
1830;DHT22;914;48.118;11.600;2023-02-26T06:53:35;-0.10;95.20
1830;DHT22;914;48.118;11.600;2023-02-26T06:56:01;0.10;94.80
1830;DHT22;914;48.118;11.600;2023-02-26T06:58:26;-0.20;94.80
1830;DHT22;914;48.118;11.600;2023-02-26T07:00:52;-0.30;95.30
1830;DHT22;914;48.118;11.600;2023-02-26T07:03:18;-0.60;95.30
1830;DHT22;914;48.118;11.600;2023-02-26T07:05:44;-0.50;95.60
1830;DHT22;914;48.118;11.600;2023-02-26T07:08:11;-0.30;96.40
1830;DHT22;914;48.118;11.600;2023-02-26T07:10:38;0.00;95.70
1830;DHT22;914;48.118;11.600;2023-02-26T07:13:04;0.10;95.20
1830;DHT22;914;48.118;11.600;2023-02-26T07:15:30;0.30;95.10
1830;DHT22;914;48.118;11.600;2023-02-26T07:17:56;-0.50;94.30
1830;DHT22;914;48.118;11.600;2023-02-26T07:20:25;-0.40;94.60
1830;DHT22;914;48.118;11.600;2023-02-26T07:22:51;-0.60;95.40
1830;DHT22;914;48.118;11.600;2023-02-26T07:25:17;-0.30;95.40
1830;DHT22;914;48.118;11.600;2023-02-26T07:27:42;0.10;95.10
1830;DHT22;914;48.118;11.600;2023-02-26T07:30:09;0.30;95.20
1830;DHT22;914;48.118;11.600;2023-02-26T07:32:34;0.30;94.00
1830;DHT22;914;48.118;11.600;2023-02-26T07:35:03;0.20;93.60
1830;DHT22;914;48.118;11.600;2023-02-26T07:37:29;-0.30;94.10
1830;DHT22;914;48.118;11.600;2023-02-26T07:39:54;-0.30;94.80
1830;DHT22;914;48.118;11.600;2023-02-26T07:42:20;-0.40;94.70
1830;DHT22;914;48.118;11.600;2023-02-26T07:44:46;-0.60;95.60
1830;DHT22;914;48.118;11.600;2023-02-26T07:47:12;-0.30;96.30
1830;DHT22;914;48.118;11.600;2023-02-26T07:49:38;-0.10;95.60
1830;DHT22;914;48.118;11.600;2023-02-26T07:52:03;-0.10;95.80
1830;DHT22;914;48.118;11.600;2023-02-26T07:54:31;0.30;94.80
1830;DHT22;914;48.118;11.600;2023-02-26T07:56:56;0.20;94.10
1830;DHT22;914;48.118;11.600;2023-02-26T07:59:22;0.10;94.40
1830;DHT22;914;48.118;11.600;2023-02-26T08:01:48;0.10;94.10
1830;DHT22;914;48.118;11.600;2023-02-26T08:04:16;-0.20;94.20
1830;DHT22;914;48.118;11.600;2023-02-26T08:06:42;0.10;95.30
1830;DHT22;914;48.118;11.600;2023-02-26T08:09:10;0.40;95.10
1830;DHT22;914;48.118;11.600;2023-02-26T08:11:36;0.10;94.10
1830;DHT22;914;48.118;11.600;2023-02-26T08:14:05;0.30;93.60
1830;DHT22;914;48.118;11.600;2023-02-26T08:16:31;0.00;93.80
1830;DHT22;914;48.118;11.600;2023-02-26T08:18:56;0.10;94.80
1830;DHT22;914;48.118;11.600;2023-02-26T08:21:22;0.50;94.80
1830;DHT22;914;48.118;11.600;2023-02-26T08:23:48;0.60;94.20
1830;DHT22;914;48.118;11.600;2023-02-26T08:26:14;0.80;94.20
1830;DHT22;914;48.118;11.600;2023-02-26T08:28:40;1.00;94.20
1830;DHT22;914;48.118;11.600;2023-02-26T08:31:06;1.10;93.70
1830;DHT22;914;48.118;11.600;2023-02-26T08:33:35;1.20;93.80
1830;DHT22;914;48.118;11.600;2023-02-26T08:36:01;1.20;93.40
1830;DHT22;914;48.118;11.600;2023-02-26T08:38:27;1.30;93.30
1830;DHT22;914;48.118;11.600;2023-02-26T08:40:54;1.50;92.80
1830;DHT22;914;48.118;11.600;2023-02-26T08:43:20;0.40;92.70
1830;DHT22;914;48.118;11.600;2023-02-26T08:45:46;0.30;94.20
1830;DHT22;914;48.118;11.600;2023-02-26T08:48:12;-0.10;94.80
1830;DHT22;914;48.118;11.600;2023-02-26T08:50:38;0.00;94.50
1830;DHT22;914;48.118;11.600;2023-02-26T08:53:05;0.20;94.70
1830;DHT22;914;48.118;11.600;2023-02-26T08:55:31;-0.40;94.80
1830;DHT22;914;48.118;11.600;2023-02-26T08:57:57;-0.10;95.80
1830;DHT22;914;48.118;11.600;2023-02-26T09:00:22;0.10;95.30
1830;DHT22;914;48.118;11.600;2023-02-26T09:02:48;0.40;95.40
1830;DHT22;914;48.118;11.600;2023-02-26T09:05:14;0.60;94.50
1830;DHT22;914;48.118;11.600;2023-02-26T09:07:41;0.90;94.00
1830;DHT22;914;48.118;11.600;2023-02-26T09:10:08;0.90;94.40
1830;DHT22;914;48.118;11.600;2023-02-26T09:12:34;0.60;94.10
1830;DHT22;914;48.118;11.600;2023-02-26T09:15:06;0.80;94.80
1830;DHT22;914;48.118;11.600;2023-02-26T09:17:33;0.40;93.90
1830;DHT22;914;48.118;11.600;2023-02-26T09:19:59;-0.50;95.90
1830;DHT22;914;48.118;11.600;2023-02-26T09:22:24;-0.40;96.50
1830;DHT22;914;48.118;11.600;2023-02-26T09:24:50;-0.60;96.40
1830;DHT22;914;48.118;11.600;2023-02-26T09:27:16;-0.20;96.60
1830;DHT22;914;48.118;11.600;2023-02-26T09:29:42;0.50;96.30
1830;DHT22;914;48.118;11.600;2023-02-26T09:32:07;0.30;95.80
1830;DHT22;914;48.118;11.600;2023-02-26T09:34:37;0.70;96.30
1830;DHT22;914;48.118;11.600;2023-02-26T09:37:04;0.00;94.20
1830;DHT22;914;48.118;11.600;2023-02-26T09:39:31;-0.50;95.20
1830;DHT22;914;48.118;11.600;2023-02-26T09:42:02;-0.70;96.20
1830;DHT22;914;48.118;11.600;2023-02-26T09:44:34;-0.40;97.60
1830;DHT22;914;48.118;11.600;2023-02-26T09:49:52;0.40;97.40
1830;DHT22;914;48.118;11.600;2023-02-26T09:52:33;0.30;96.20
1830;DHT22;914;48.118;11.600;2023-02-26T09:55:13;0.50;96.80
1830;DHT22;914;48.118;11.600;2023-02-26T09:57:44;1.10;95.70
1830;DHT22;914;48.118;11.600;2023-02-26T10:00:37;0.20;95.60
1830;DHT22;914;48.118;11.600;2023-02-26T10:03:19;0.80;97.10
1830;DHT22;914;48.118;11.600;2023-02-26T10:08:47;1.40;95.50
1830;DHT22;914;48.118;11.600;2023-02-26T10:11:35;0.10;94.10
1830;DHT22;914;48.118;11.600;2023-02-26T10:16:46;1.00;97.10
1830;DHT22;914;48.118;11.600;2023-02-26T10:19:17;1.10;95.80
1830;DHT22;914;48.118;11.600;2023-02-26T10:24:48;1.70;94.40
1830;DHT22;914;48.118;11.600;2023-02-26T10:27:19;1.30;94.90
1830;DHT22;914;48.118;11.600;2023-02-26T10:32:35;1.80;94.50
1830;DHT22;914;48.118;11.600;2023-02-26T10:35:11;1.50;94.90
1830;DHT22;914;48.118;11.600;2023-02-26T10:37:55;0.60;94.80
1830;DHT22;914;48.118;11.600;2023-02-26T10:40:41;0.30;97.30
1830;DHT22;914;48.118;11.600;2023-02-26T10:43:27;0.30;97.30
1830;DHT22;914;48.118;11.600;2023-02-26T10:46:49;0.20;98.20
1830;DHT22;914;48.118;11.600;2023-02-26T10:51:50;0.20;98.00
1830;DHT22;914;48.118;11.600;2023-02-26T10:54:33;0.30;97.90
1830;DHT22;914;48.118;11.600;2023-02-26T10:56:59;0.10;99.20
1830;DHT22;914;48.118;11.600;2023-02-26T10:59:26;0.50;98.80
1830;DHT22;914;48.118;11.600;2023-02-26T11:01:52;0.50;97.40
1830;DHT22;914;48.118;11.600;2023-02-26T11:04:21;1.00;98.10
1830;DHT22;914;48.118;11.600;2023-02-26T11:07:03;0.60;97.40
1830;DHT22;914;48.118;11.600;2023-02-26T11:09:38;1.20;97.50
1830;DHT22;914;48.118;11.600;2023-02-26T11:14:38;1.20;97.10
1830;DHT22;914;48.118;11.600;2023-02-26T11:17:09;1.40;95.90
1830;DHT22;914;48.118;11.600;2023-02-26T11:19:39;1.00;95.60
1830;DHT22;914;48.118;11.600;2023-02-26T11:22:07;0.90;96.30
1830;DHT22;914;48.118;11.600;2023-02-26T11:24:41;1.10;96.50
1830;DHT22;914;48.118;11.600;2023-02-26T11:27:21;0.80;95.90
1830;DHT22;914;48.118;11.600;2023-02-26T11:29:57;0.90;96.00
1830;DHT22;914;48.118;11.600;2023-02-26T11:32:31;1.30;96.40
1830;DHT22;914;48.118;11.600;2023-02-26T11:34:57;2.10;95.70
1830;DHT22;914;48.118;11.600;2023-02-26T11:37:27;1.70;94.70
1830;DHT22;914;48.118;11.600;2023-02-26T11:39:59;1.70;96.10
1830;DHT22;914;48.118;11.600;2023-02-26T11:42:28;1.80;96.30
1830;DHT22;914;48.118;11.600;2023-02-26T11:44:54;2.00;96.30
1830;DHT22;914;48.118;11.600;2023-02-26T11:47:30;1.90;95.90
1830;DHT22;914;48.118;11.600;2023-02-26T11:50:02;2.00;96.80
1830;DHT22;914;48.118;11.600;2023-02-26T11:52:44;1.80;97.00
1830;DHT22;914;48.118;11.600;2023-02-26T11:55:42;1.00;98.20
1830;DHT22;914;48.118;11.600;2023-02-26T11:58:33;0.70;99.90
1830;DHT22;914;48.118;11.600;2023-02-26T12:01:02;0.90;99.90
1830;DHT22;914;48.118;11.600;2023-02-26T12:03:31;1.50;99.90
1830;DHT22;914;48.118;11.600;2023-02-26T12:05:58;2.20;99.90
1830;DHT22;914;48.118;11.600;2023-02-26T12:08:34;3.30;99.60
1830;DHT22;914;48.118;11.600;2023-02-26T12:14:20;1.90;99.20
1830;DHT22;914;48.118;11.600;2023-02-26T12:34:05;5.30;92.70
1830;DHT22;914;48.118;11.600;2023-02-26T12:37:03;5.40;89.80
1830;DHT22;914;48.118;11.600;2023-02-26T12:43:03;6.20;83.70
1830;DHT22;914;48.118;11.600;2023-02-26T12:51:44;5.00;88.60
1830;DHT22;914;48.118;11.600;2023-02-26T12:54:37;5.40;88.90
1830;DHT22;914;48.118;11.600;2023-02-26T12:57:19;5.20;84.90
1830;DHT22;914;48.118;11.600;2023-02-26T13:05:44;3.20;82.40
1830;DHT22;914;48.118;11.600;2023-02-26T13:08:43;3.30;85.40
1830;DHT22;914;48.118;11.600;2023-02-26T13:11:34;4.40;88.80
1830;DHT22;914;48.118;11.600;2023-02-26T13:17:39;5.50;79.90
1830;DHT22;914;48.118;11.600;2023-02-26T13:20:27;4.20;84.60
1830;DHT22;914;48.118;11.600;2023-02-26T13:23:10;4.10;90.30
1830;DHT22;914;48.118;11.600;2023-02-26T13:25:47;3.50;91.20
1830;DHT22;914;48.118;11.600;2023-02-26T13:30:54;3.10;93.10
1830;DHT22;914;48.118;11.600;2023-02-26T13:33:24;2.30;92.50
1830;DHT22;914;48.118;11.600;2023-02-26T13:35:54;2.00;93.00
1830;DHT22;914;48.118;11.600;2023-02-26T13:44:15;2.10;92.50
1830;DHT22;914;48.118;11.600;2023-02-26T13:49:31;1.80;92.80
1830;DHT22;914;48.118;11.600;2023-02-26T13:51:58;1.20;94.90
1830;DHT22;914;48.118;11.600;2023-02-26T13:54:44;0.70;98.40
1830;DHT22;914;48.118;11.600;2023-02-26T14:00:26;1.10;98.30
1830;DHT22;914;48.118;11.600;2023-02-26T14:08:27;1.60;96.90
1830;DHT22;914;48.118;11.600;2023-02-26T14:11:42;1.10;95.80
1830;DHT22;914;48.118;11.600;2023-02-26T14:14:23;1.20;96.10
1830;DHT22;914;48.118;11.600;2023-02-26T14:19:37;2.20;94.80
1830;DHT22;914;48.118;11.600;2023-02-26T14:24:59;4.20;93.60
1830;DHT22;914;48.118;11.600;2023-02-26T14:30:46;3.70;90.70
1830;DHT22;914;48.118;11.600;2023-02-26T14:33:15;3.70;90.30
1830;DHT22;914;48.118;11.600;2023-02-26T14:35:47;3.80;90.40
1830;DHT22;914;48.118;11.600;2023-02-26T14:38:20;4.00;90.20
1830;DHT22;914;48.118;11.600;2023-02-26T14:41:13;3.80;91.00
1830;DHT22;914;48.118;11.600;2023-02-26T14:43:52;3.50;89.50
1830;DHT22;914;48.118;11.600;2023-02-26T14:46:20;2.90;92.80
1830;DHT22;914;48.118;11.600;2023-02-26T14:48:46;2.90;94.80
1830;DHT22;914;48.118;11.600;2023-02-26T14:59:18;3.20;94.60
1830;DHT22;914;48.118;11.600;2023-02-26T15:02:12;3.20;93.50
1830;DHT22;914;48.118;11.600;2023-02-26T15:05:08;3.00;93.90
1830;DHT22;914;48.118;11.600;2023-02-26T15:11:16;2.90;93.70
1830;DHT22;914;48.118;11.600;2023-02-26T15:24:35;3.00;94.10
1830;DHT22;914;48.118;11.600;2023-02-26T15:27:03;3.10;94.30
1830;DHT22;914;48.118;11.600;2023-02-26T15:29:34;3.20;93.90
1830;DHT22;914;48.118;11.600;2023-02-26T15:32:16;3.30;93.90
1830;DHT22;914;48.118;11.600;2023-02-26T15:35:37;3.50;93.60
1830;DHT22;914;48.118;11.600;2023-02-26T15:37:51;3.50;92.70
1830;DHT22;914;48.118;11.600;2023-02-26T15:40:17;3.40;91.80
1830;DHT22;914;48.118;11.600;2023-02-26T15:42:44;2.70;92.20
1830;DHT22;914;48.118;11.600;2023-02-26T15:48:01;2.80;92.90
1830;DHT22;914;48.118;11.600;2023-02-26T15:50:31;2.50;93.60
1830;DHT22;914;48.118;11.600;2023-02-26T15:53:00;2.90;93.60
1830;DHT22;914;48.118;11.600;2023-02-26T15:55:31;3.30;93.40
1830;DHT22;914;48.118;11.600;2023-02-26T15:57:59;2.70;91.50
1830;DHT22;914;48.118;11.600;2023-02-26T16:00:25;2.50;92.10
1830;DHT22;914;48.118;11.600;2023-02-26T16:02:55;2.60;93.20
1830;DHT22;914;48.118;11.600;2023-02-26T16:05:28;2.80;93.20
1830;DHT22;914;48.118;11.600;2023-02-26T16:07:54;2.70;93.00
1830;DHT22;914;48.118;11.600;2023-02-26T16:12:54;3.00;92.90
1830;DHT22;914;48.118;11.600;2023-02-26T16:15:30;3.20;93.00
1830;DHT22;914;48.118;11.600;2023-02-26T16:17:57;3.30;92.50
1830;DHT22;914;48.118;11.600;2023-02-26T16:20:26;3.50;92.40
1830;DHT22;914;48.118;11.600;2023-02-26T16:22:57;3.30;92.70
1830;DHT22;914;48.118;11.600;2023-02-26T16:25:37;3.30;93.20
1830;DHT22;914;48.118;11.600;2023-02-26T16:28:14;3.50;93.40
1830;DHT22;914;48.118;11.600;2023-02-26T16:30:47;3.10;92.10
1830;DHT22;914;48.118;11.600;2023-02-26T16:33:16;2.30;92.60
1830;DHT22;914;48.118;11.600;2023-02-26T16:36:05;1.50;93.80
1830;DHT22;914;48.118;11.600;2023-02-26T16:38:44;0.80;93.50
1830;DHT22;914;48.118;11.600;2023-02-26T16:41:12;1.30;95.40
1830;DHT22;914;48.118;11.600;2023-02-26T16:46:16;1.70;95.40
1830;DHT22;914;48.118;11.600;2023-02-26T16:48:52;1.50;94.80
1830;DHT22;914;48.118;11.600;2023-02-26T16:51:22;1.70;95.20
1830;DHT22;914;48.118;11.600;2023-02-26T16:53:55;1.90;94.60
1830;DHT22;914;48.118;11.600;2023-02-26T16:56:37;2.50;93.80
1830;DHT22;914;48.118;11.600;2023-02-26T16:59:19;2.60;92.00
1830;DHT22;914;48.118;11.600;2023-02-26T17:02:11;2.60;90.80
1830;DHT22;914;48.118;11.600;2023-02-26T17:04:38;2.00;90.20
1830;DHT22;914;48.118;11.600;2023-02-26T17:07:13;2.00;90.90
1830;DHT22;914;48.118;11.600;2023-02-26T17:09:43;2.10;90.20
1830;DHT22;914;48.118;11.600;2023-02-26T17:12:18;2.10;90.30
1830;DHT22;914;48.118;11.600;2023-02-26T17:15:12;2.10;90.00
1830;DHT22;914;48.118;11.600;2023-02-26T17:17:40;1.80;90.50
1830;DHT22;914;48.118;11.600;2023-02-26T17:20:06;1.80;91.00
1830;DHT22;914;48.118;11.600;2023-02-26T17:22:31;1.90;90.50
1830;DHT22;914;48.118;11.600;2023-02-26T17:24:57;1.90;91.10
1830;DHT22;914;48.118;11.600;2023-02-26T17:27:31;1.50;89.90
1830;DHT22;914;48.118;11.600;2023-02-26T17:29:58;1.40;91.00
1830;DHT22;914;48.118;11.600;2023-02-26T17:32:26;1.50;91.20
1830;DHT22;914;48.118;11.600;2023-02-26T17:34:53;1.60;91.40
1830;DHT22;914;48.118;11.600;2023-02-26T17:37:19;2.20;90.90
1830;DHT22;914;48.118;11.600;2023-02-26T17:39:47;2.10;90.90
1830;DHT22;914;48.118;11.600;2023-02-26T17:42:18;1.80;91.80
1830;DHT22;914;48.118;11.600;2023-02-26T17:44:50;1.60;92.50
1830;DHT22;914;48.118;11.600;2023-02-26T17:47:19;0.80;94.20
1830;DHT22;914;48.118;11.600;2023-02-26T17:49:46;0.30;97.00
1830;DHT22;914;48.118;11.600;2023-02-26T17:52:12;0.30;98.00
1830;DHT22;914;48.118;11.600;2023-02-26T17:54:38;0.50;97.40
1830;DHT22;914;48.118;11.600;2023-02-26T17:57:04;0.10;98.60
1830;DHT22;914;48.118;11.600;2023-02-26T17:59:30;0.00;98.40
1830;DHT22;914;48.118;11.600;2023-02-26T18:01:56;-0.10;99.20
1830;DHT22;914;48.118;11.600;2023-02-26T18:04:24;0.20;98.80
1830;DHT22;914;48.118;11.600;2023-02-26T18:06:50;0.40;98.10
1830;DHT22;914;48.118;11.600;2023-02-26T18:09:16;0.60;97.40
1830;DHT22;914;48.118;11.600;2023-02-26T18:11:41;0.50;98.00
1830;DHT22;914;48.118;11.600;2023-02-26T18:14:08;0.30;97.40
1830;DHT22;914;48.118;11.600;2023-02-26T18:16:38;0.20;98.60
1830;DHT22;914;48.118;11.600;2023-02-26T18:19:04;0.50;98.50
1830;DHT22;914;48.118;11.600;2023-02-26T18:21:30;0.40;97.90
1830;DHT22;914;48.118;11.600;2023-02-26T18:23:56;0.50;97.80
1830;DHT22;914;48.118;11.600;2023-02-26T18:26:23;0.40;97.60
1830;DHT22;914;48.118;11.600;2023-02-26T18:28:52;0.90;98.10
1830;DHT22;914;48.118;11.600;2023-02-26T18:31:21;1.00;97.10
1830;DHT22;914;48.118;11.600;2023-02-26T18:33:47;1.10;96.60
1830;DHT22;914;48.118;11.600;2023-02-26T18:36:21;1.30;96.40
1830;DHT22;914;48.118;11.600;2023-02-26T18:38:47;1.50;95.70
1830;DHT22;914;48.118;11.600;2023-02-26T18:41:13;1.30;95.60
1830;DHT22;914;48.118;11.600;2023-02-26T18:43:38;1.60;95.60
1830;DHT22;914;48.118;11.600;2023-02-26T18:46:04;1.50;94.80
1830;DHT22;914;48.118;11.600;2023-02-26T18:48:30;1.30;94.60
1830;DHT22;914;48.118;11.600;2023-02-26T18:50:56;1.30;95.50
1830;DHT22;914;48.118;11.600;2023-02-26T18:53:24;1.60;94.20
1830;DHT22;914;48.118;11.600;2023-02-26T18:55:52;1.70;94.60
1830;DHT22;914;48.118;11.600;2023-02-26T18:58:20;1.60;94.70
1830;DHT22;914;48.118;11.600;2023-02-26T19:00:46;1.00;95.00
1830;DHT22;914;48.118;11.600;2023-02-26T19:03:11;0.50;95.80
1830;DHT22;914;48.118;11.600;2023-02-26T19:05:37;0.90;97.00
1830;DHT22;914;48.118;11.600;2023-02-26T19:08:04;1.10;96.00
1830;DHT22;914;48.118;11.600;2023-02-26T19:10:29;1.00;96.20
1830;DHT22;914;48.118;11.600;2023-02-26T19:12:56;1.30;95.50
1830;DHT22;914;48.118;11.600;2023-02-26T19:15:23;0.90;95.30
1830;DHT22;914;48.118;11.600;2023-02-26T19:17:49;1.10;96.30